Terminal Aerodrome Forecast
Issued by NWS

Home | Current Version | Previous Version | Text Only | Print | Product List | Glossary On
Versions: 1 2 3 4 5 6 7 8 9 10 11 12 13 14 15 16 17 18 19 20 21
000
FTUS43 KDLH 202336
TAFBRD
TAF
KBRD 202336Z 2100/2124 23011KT P6SM BKN120 WS020/28045KT
     FM210200 27011G20KT P6SM SCT100 WS020/30045KT
     FM210400 29013G24KT P6SM SCT100
     FM210500 29016G28KT P6SM VCSH SCT025 BKN040
     FM211000 30018G31KT P6SM OVC035
     FM211600 32016G27KT P6SM SCT045
     FM212000 31014G23KT P6SM SCT200=

USA.gov is the U.S. government's official web portal to all federal, state and local government web resources and services.